Time;durP1;ratioP1;P1;durP2;ratioP2;P2;SDS_P1;SDS_P2;PMS_P1;PMS_P2;Temp;Humidity;BMP_temperature;BMP_pressure;BME280_temperature;BME280_humidity;BME280_pressure;Samples;Min_cycle;Max_cycle;Signal;HPM_P1;HPM_P2
2024/04/06 00:00:24;;;;;;;5.40;4.20;;;;;;;22.18;29.53;100999.51;107551;1265;68737;-87
2024/04/06 00:02:50;;;;;;;6.60;4.80;;;;;;;22.18;29.50;101002.34;107550;1270;70014;-86
2024/04/06 00:05:18;;;;;;;6.50;4.70;;;;;;;22.18;29.46;101004.99;107584;1265;82917;-86
2024/04/06 00:07:46;;;;;;;4.90;4.40;;;;;;;22.18;29.52;101003.25;107579;1266;72388;-87
2024/04/06 00:10:12;;;;;;;5.90;4.90;;;;;;;22.18;29.53;100998.89;107588;1265;69973;-86
2024/04/06 00:12:38;;;;;;;5.90;4.60;;;;;;;22.17;29.51;100988.70;107560;1266;69963;-87
2024/04/06 00:15:05;;;;;;;6.00;4.40;;;;;;;22.17;29.62;100981.89;107567;1267;70468;-92
2024/04/06 00:17:32;;;;;;;7.00;4.90;;;;;;;22.16;29.68;100976.70;107490;1265;67948;-86
2024/04/06 00:19:58;;;;;;;6.80;4.80;;;;;;;22.17;29.57;100973.77;107609;1270;70495;-86
2024/04/06 00:22:23;;;;;;;6.00;4.70;;;;;;;22.16;29.59;100974.34;107603;1265;70059;-86
2024/04/06 00:24:49;;;;;;;5.10;4.60;;;;;;;22.16;29.73;100969.94;107615;1265;69954;-87
2024/04/06 00:27:15;;;;;;;5.20;4.30;;;;;;;22.15;29.69;100967.89;107585;1265;70010;-86
2024/04/06 00:29:40;;;;;;;6.10;5.10;;;;;;;22.16;29.65;100963.78;107497;1267;67736;-86
2024/04/06 00:32:06;;;;;;;6.50;4.80;;;;;;;22.16;29.68;100959.64;107540;1267;70093;-86
2024/04/06 00:34:32;;;;;;;6.50;5.10;;;;;;;22.15;29.76;100952.01;107589;1268;70014;-86
2024/04/06 00:37:01;;;;;;;5.80;5.10;;;;;;;22.15;29.80;100947.55;107500;1267;68730;-86
2024/04/06 00:39:27;;;;;;;7.10;4.90;;;;;;;22.15;29.79;100942.16;107599;1267;82668;-87
2024/04/06 00:42:01;;;;;;;5.80;4.80;;;;;;;22.15;29.67;100944.84;107575;1266;70016;-92
2024/04/06 00:44:27;;;;;;;6.80;5.00;;;;;;;22.15;29.73;100945.35;107517;1268;69789;-86
2024/04/06 00:46:53;;;;;;;7.20;5.00;;;;;;;22.14;29.79;100944.33;107569;1267;68006;-87
2024/04/06 00:49:19;;;;;;;5.60;4.80;;;;;;;22.14;29.76;100947.70;107659;1272;70020;-87
2024/04/06 00:51:45;;;;;;;7.00;4.80;;;;;;;22.14;29.71;100947.24;107640;1270;68075;-87
2024/04/06 00:54:10;;;;;;;6.00;4.70;;;;;;;22.14;29.83;100947.95;107697;1266;67753;-88
2024/04/06 00:56:36;;;;;;;5.80;4.80;;;;;;;22.14;29.85;100948.27;107552;1272;70022;-87
2024/04/06 00:59:02;;;;;;;6.80;5.20;;;;;;;22.14;29.81;100945.14;107713;1265;70106;-87
2024/04/06 01:01:28;;;;;;;5.30;4.80;;;;;;;22.14;29.80;100946.52;107767;1266;82838;-87
2024/04/06 01:03:54;;;;;;;5.60;4.80;;;;;;;22.14;29.89;100948.21;107604;1266;69910;-87
2024/04/06 01:06:20;;;;;;;5.20;4.70;;;;;;;22.13;29.83;100942.21;107675;1267;68003;-86
2024/04/06 01:08:54;;;;;;;7.10;5.40;;;;;;;22.13;29.95;100941.39;107599;1266;67888;-92
2024/04/06 01:11:19;;;;;;;5.30;4.80;;;;;;;22.12;29.81;100944.73;107615;1268;75328;-87
2024/04/06 01:13:45;;;;;;;6.70;5.30;;;;;;;22.13;29.86;100952.05;107627;1267;68614;-87
2024/04/06 01:16:11;;;;;;;7.40;5.20;;;;;;;22.13;30.03;100955.99;107602;1265;69990;-87
2024/04/06 01:18:37;;;;;;;6.50;5.20;;;;;;;22.12;29.87;100955.64;107643;1266;68044;-87
2024/04/06 01:21:04;;;;;;;5.40;4.60;;;;;;;22.13;29.88;100959.94;107673;1267;68828;-87
2024/04/06 01:23:30;;;;;;;6.00;5.40;;;;;;;22.12;29.97;100961.02;107676;1265;68048;-87
2024/04/06 01:25:55;;;;;;;6.00;5.00;;;;;;;22.12;30.06;100958.00;107705;1272;67874;-87
2024/04/06 01:28:21;;;;;;;6.50;4.80;;;;;;;22.13;30.05;100958.09;107710;1266;69966;-87
2024/04/06 01:30:47;;;;;;;6.10;5.20;;;;;;;22.12;30.01;100953.48;107707;1266;70130;-87
2024/04/06 01:33:12;;;;;;;5.50;4.90;;;;;;;22.12;29.86;100948.56;107675;1266;70502;-87
2024/04/06 01:38:18;;;;;;;6.60;5.40;;;;;;;22.12;29.95;100956.10;107750;1265;72191;-86
2024/04/06 01:40:44;;;;;;;6.00;5.40;;;;;;;22.11;30.00;100961.68;107761;1265;70019;-86
2024/04/06 01:43:09;;;;;;;6.20;5.20;;;;;;;22.11;30.01;100966.29;107729;1265;70012;-86
2024/04/06 01:45:35;;;;;;;6.80;5.10;;;;;;;22.11;30.09;100973.52;107657;1265;67702;-86
2024/04/06 01:48:01;;;;;;;6.50;5.00;;;;;;;22.11;30.00;100980.54;107836;1265;69908;-87
2024/04/06 01:50:27;;;;;;;6.40;5.10;;;;;;;22.11;30.03;100975.63;108058;1265;67898;-86
2024/04/06 01:52:53;;;;;;;7.20;5.10;;;;;;;22.11;30.14;100983.36;107808;1267;67582;-86
2024/04/06 01:55:18;;;;;;;5.60;4.80;;;;;;;22.11;30.07;100985.88;107882;1273;69955;-86
2024/04/06 01:57:44;;;;;;;6.80;5.70;;;;;;;22.11;30.13;100989.71;107909;1267;69957;-87
2024/04/06 02:00:10;;;;;;;6.90;5.00;;;;;;;22.11;30.08;100991.25;107789;1265;67655;-86
2024/04/06 02:02:43;;;;;;;6.50;5.20;;;;;;;22.11;30.11;100991.81;107742;1271;68538;-92
2024/04/06 02:05:09;;;;;;;5.30;4.70;;;;;;;22.11;29.97;100992.54;107773;1265;69964;-86
2024/04/06 02:07:35;;;;;;;8.20;4.90;;;;;;;22.11;30.12;100994.16;108040;1265;68022;-87
2024/04/06 02:10:01;;;;;;;6.80;5.10;;;;;;;22.11;30.16;100996.89;108095;1265;68258;-86
2024/04/06 02:12:27;;;;;;;6.10;5.20;;;;;;;22.11;30.14;101008.88;108012;1265;68616;-86
2024/04/06 02:14:53;;;;;;;7.40;5.20;;;;;;;22.11;30.18;101016.05;107698;1265;69976;-87
2024/04/06 02:17:19;;;;;;;7.20;5.00;;;;;;;22.10;30.24;101012.20;107659;1271;69967;-86
2024/04/06 02:19:45;;;;;;;7.50;5.40;;;;;;;22.11;30.13;101009.29;107540;1265;68247;-86
2024/04/06 02:22:10;;;;;;;6.40;5.20;;;;;;;22.10;30.18;101008.51;107683;1265;72443;-86
2024/04/06 02:24:36;;;;;;;6.20;5.00;;;;;;;22.10;30.13;101004.58;107696;1265;68385;-87
2024/04/06 02:27:03;;;;;;;5.30;4.80;;;;;;;22.10;30.09;101005.39;107740;1267;69947;-86
2024/04/06 02:29:37;;;;;;;6.50;5.20;;;;;;;22.10;30.29;101009.60;107817;1265;69950;-91
2024/04/06 02:32:04;;;;;;;6.30;5.00;;;;;;;22.10;30.14;101007.65;107958;1265;82863;-86
2024/04/06 02:34:29;;;;;;;6.70;4.90;;;;;;;22.10;30.13;101001.95;107869;1265;68262;-87
2024/04/06 02:36:55;;;;;;;5.60;5.00;;;;;;;22.10;30.17;100995.86;107902;1265;68126;-86
2024/04/06 02:39:21;;;;;;;5.60;4.60;;;;;;;22.09;30.31;100994.67;107870;1265;70005;-87
2024/04/06 02:41:47;;;;;;;6.30;5.10;;;;;;;22.09;30.16;100994.11;107987;1266;67990;-86
2024/04/06 02:44:13;;;;;;;6.70;5.20;;;;;;;22.09;30.27;100992.98;108657;1266;69853;-86
2024/04/06 02:46:38;;;;;;;6.70;5.20;;;;;;;22.10;30.27;100993.96;108932;1265;67543;-86
2024/04/06 02:49:04;;;;;;;6.30;5.10;;;;;;;22.09;30.28;100995.95;108957;1265;70168;-86
2024/04/06 02:51:30;;;;;;;6.10;5.20;;;;;;;22.09;30.24;100994.98;109026;1265;68045;-86
2024/04/06 02:53:56;;;;;;;6.30;5.10;;;;;;;22.10;30.32;100986.83;108868;1265;67553;-86
2024/04/06 02:58:58;;;;;;;8.90;5.60;;;;;;;22.09;30.35;100981.05;108295;1267;69970;-84
2024/04/06 03:01:24;;;;;;;5.90;4.70;;;;;;;22.10;30.27;100983.50;107774;1273;68104;-85
2024/04/06 03:03:50;;;;;;;5.30;4.70;;;;;;;22.09;30.30;100977.25;107814;1267;69906;-84
2024/04/06 03:06:16;;;;;;;6.00;5.00;;;;;;;22.10;30.29;100979.97;107830;1267;70026;-85
2024/04/06 03:08:42;;;;;;;5.80;4.70;;;;;;;22.09;30.31;100973.00;107689;1266;70467;-86
2024/04/06 03:11:08;;;;;;;5.50;4.60;;;;;;;22.09;30.32;100974.23;107642;1267;70285;-85
2024/04/06 03:13:33;;;;;;;7.90;5.00;;;;;;;22.09;30.38;100977.66;107704;1266;69986;-85
2024/04/06 03:15:59;;;;;;;6.90;4.90;;;;;;;22.09;30.41;100979.70;107674;1267;82899;-85
2024/04/06 03:18:25;;;;;;;7.00;5.20;;;;;;;22.08;30.37;100986.67;107714;1267;67617;-86
2024/04/06 03:20:52;;;;;;;6.40;4.90;;;;;;;22.08;30.42;100992.62;107714;1266;68716;-86
2024/04/06 03:23:26;;;;;;;5.60;4.80;;;;;;;22.07;30.49;100993.95;107790;1266;69915;-91
2024/04/06 03:25:52;;;;;;;6.80;4.90;;;;;;;22.06;30.51;100996.10;107639;1267;75605;-85
2024/04/06 03:28:19;;;;;;;8.10;5.00;;;;;;;22.07;30.50;100996.82;107751;1268;70582;-85
2024/04/06 03:30:44;;;;;;;5.90;4.60;;;;;;;22.06;30.52;100997.33;107686;1267;68599;-86
2024/04/06 03:33:10;;;;;;;5.50;4.20;;;;;;;22.06;30.44;101007.63;107690;1267;69983;-86
2024/04/06 03:35:36;;;;;;;5.30;4.60;;;;;;;22.06;30.46;101007.73;107669;1266;69958;-85
2024/04/06 03:38:02;;;;;;;6.90;4.60;;;;;;;22.06;30.47;101001.95;107646;1266;68681;-86
2024/04/06 03:40:28;;;;;;;6.30;4.60;;;;;;;22.05;30.45;100999.63;107839;1268;69843;-86
2024/04/06 03:42:57;;;;;;;5.90;4.60;;;;;;;22.06;30.52;101005.73;107728;1265;69926;-86
2024/04/06 03:45:23;;;;;;;5.50;4.60;;;;;;;22.06;30.56;101009.05;107828;1265;69949;-86
2024/04/06 03:47:50;;;;;;;5.20;4.60;;;;;;;22.05;30.48;101017.04;107698;1265;67955;-86
2024/04/06 03:50:20;;;;;;;5.90;4.50;;;;;;;22.05;30.56;101017.31;107695;1265;69913;-90
2024/04/06 03:52:48;;;;;;;5.50;4.40;;;;;;;22.05;30.63;101013.52;107681;1265;72292;-85
2024/04/06 03:55:14;;;;;;;7.70;4.80;;;;;;;22.04;30.61;101015.35;107688;1267;70067;-85
2024/04/06 03:57:40;;;;;;;6.20;4.60;;;;;;;22.05;30.40;101010.39;107563;1270;70102;-85
2024/04/06 04:00:08;;;;;;;6.70;4.40;;;;;;;22.05;30.48;101011.37;107570;1265;70090;-85
2024/04/06 04:02:37;;;;;;;5.00;4.40;;;;;;;22.04;30.57;101012.23;107523;1265;83834;-85
2024/04/06 04:07:46;;;;;;;6.90;4.60;;;;;;;22.04;30.60;101013.50;107860;1264;69882;-86
2024/04/06 04:10:12;;;;;;;5.30;4.50;;;;;;;22.03;30.71;101017.09;107718;1264;69948;-87
2024/04/06 04:12:38;;;;;;;6.50;4.40;;;;;;;22.03;30.67;101014.02;107676;1264;70034;-86
2024/04/06 04:15:07;;;;;;;5.60;4.40;;;;;;;22.04;30.62;101014.02;107592;1270;68262;-87
2024/04/06 04:17:33;;;;;;;5.90;4.80;;;;;;;22.03;30.69;101011.46;107701;1264;72310;-87
2024/04/06 04:22:40;;;;;;;6.10;4.70;;;;;;;22.03;30.73;101019.04;107748;1267;68795;-86
2024/04/06 04:25:07;;;;;;;6.50;4.40;;;;;;;22.03;30.76;101022.83;107766;1267;68180;-86
2024/04/06 04:27:33;;;;;;;5.90;4.50;;;;;;;22.03;30.84;101021.80;107694;1267;68072;-86
2024/04/06 04:29:59;;;;;;;6.80;4.40;;;;;;;22.03;30.76;101024.79;107732;1266;69918;-86
2024/04/06 04:32:24;;;;;;;5.70;4.60;;;;;;;22.03;30.72;101024.22;107619;1265;69982;-87
2024/04/06 04:34:50;;;;;;;5.80;4.70;;;;;;;22.03;30.83;101023.34;107495;1267;70446;-86
2024/04/06 04:37:16;;;;;;;5.70;4.40;;;;;;;22.03;30.68;101018.73;107690;1267;68169;-86
2024/04/06 04:39:41;;;;;;;5.40;4.50;;;;;;;22.03;30.87;101018.27;107650;1267;72457;-86
2024/04/06 04:42:07;;;;;;;5.90;4.60;;;;;;;22.03;30.78;101022.12;107582;1265;70166;-86
2024/04/06 04:44:33;;;;;;;5.50;4.70;;;;;;;22.03;30.74;101018.32;107646;1265;69961;-86
2024/04/06 04:47:07;;;;;;;6.40;4.30;;;;;;;22.03;30.81;101018.27;107634;1265;67763;-91
2024/04/06 04:49:33;;;;;;;5.60;4.20;;;;;;;22.03;30.80;101020.52;107554;1265;82750;-86
2024/04/06 04:51:58;;;;;;;4.90;4.40;;;;;;;22.02;30.76;101018.12;107549;1265;68631;-86
2024/04/06 04:54:24;;;;;;;5.80;4.20;;;;;;;22.02;30.84;101018.22;107589;1265;70459;-86
2024/04/06 04:56:50;;;;;;;5.30;4.50;;;;;;;22.02;30.84;101021.60;107843;1265;70080;-86
2024/04/06 04:59:16;;;;;;;5.10;4.20;;;;;;;22.02;30.97;101018.12;107630;1265;67871;-87
2024/04/06 05:01:41;;;;;;;6.30;4.50;;;;;;;22.02;30.80;101023.04;107778;1269;69976;-86
2024/04/06 05:04:08;;;;;;;6.40;4.00;;;;;;;22.03;30.90;101023.48;107556;1270;68088;-86
2024/04/06 05:06:33;;;;;;;5.40;4.30;;;;;;;22.03;30.89;101022.02;107549;1271;68163;-86
2024/04/06 05:08:59;;;;;;;7.50;4.70;;;;;;;22.03;30.88;101025.75;107682;1265;68402;-86
2024/04/06 05:11:25;;;;;;;6.20;4.20;;;;;;;22.03;30.92;101018.67;107744;1269;68494;-86
2024/04/06 05:14:07;;;;;;;6.40;4.60;;;;;;;22.03;30.83;101025.86;107400;1265;68726;-91
2024/04/06 05:16:33;;;;;;;5.30;4.20;;;;;;;22.03;30.90;101025.23;107486;1267;70022;-86
2024/04/06 05:18:58;;;;;;;5.10;4.10;;;;;;;22.03;30.94;101029.91;107546;1265;70103;-86
2024/04/06 05:21:24;;;;;;;5.30;4.60;;;;;;;22.04;30.92;101031.95;107499;1266;69969;-86
2024/04/06 05:23:51;;;;;;;5.00;4.50;;;;;;;22.04;30.89;101036.31;107551;1265;68151;-86
2024/04/06 05:26:16;;;;;;;7.00;4.70;;;;;;;22.04;30.89;101033.95;107601;1265;70126;-86
2024/04/06 05:28:42;;;;;;;7.80;4.20;;;;;;;22.04;30.90;101027.55;107429;1265;67556;-86
2024/04/06 05:31:08;;;;;;;6.00;4.00;;;;;;;22.04;30.91;101022.93;107614;1265;75019;-86
2024/04/06 05:33:34;;;;;;;6.60;4.50;;;;;;;22.04;30.96;101021.30;107435;1265;70519;-86
2024/04/06 05:36:04;;;;;;;5.60;4.50;;;;;;;22.04;30.91;101017.35;107562;1265;68093;-86
2024/04/06 05:38:30;;;;;;;7.10;4.90;;;;;;;22.04;30.92;101023.05;107744;1265;69924;-86
2024/04/06 05:40:55;;;;;;;9.30;6.40;;;;;;;22.04;30.96;101023.97;107436;1270;70039;-87
2024/04/06 05:43:21;;;;;;;12.20;6.80;;;;;;;22.03;31.12;101026.02;107422;1265;70130;-86
2024/04/06 05:45:47;;;;;;;12.60;7.60;;;;;;;22.00;31.40;101024.51;107591;1265;69972;-86
2024/04/06 05:48:12;;;;;;;14.00;7.50;;;;;;;21.91;31.64;101015.97;107519;1265;70174;-86
2024/04/06 05:50:41;;;;;;;16.80;7.90;;;;;;;21.82;32.12;101011.21;107484;1265;67821;-86
2024/04/06 05:53:06;;;;;;;18.60;8.60;;;;;;;21.72;32.32;101010.39;107633;1266;75375;-86
2024/04/06 05:55:32;;;;;;;20.90;9.00;;;;;;;21.64;32.69;101007.42;107276;1265;70027;-86
2024/04/06 05:57:58;;;;;;;17.30;8.60;;;;;;;21.57;32.74;101008.64;107570;1265;68660;-86
2024/04/06 06:00:24;;;;;;;18.00;8.20;;;;;;;21.50;32.81;101012.59;107577;1265;68051;-86
2024/04/06 06:02:52;;;;;;;17.70;8.70;;;;;;;21.45;33.04;101014.85;107586;1265;70139;-86
2024/04/06 06:05:17;;;;;;;14.50;8.90;;;;;;;21.40;33.28;101018.05;107437;1265;70150;-86
2024/04/06 06:07:52;;;;;;;14.70;8.60;;;;;;;21.35;33.38;101021.66;107591;1265;69919;-91
2024/04/06 06:10:18;;;;;;;16.10;7.90;;;;;;;21.31;33.66;101018.65;107469;1267;72184;-86
2024/04/06 06:12:44;;;;;;;14.20;8.40;;;;;;;21.26;33.59;101021.07;107489;1266;69927;-86
2024/04/06 06:15:09;;;;;;;14.20;7.80;;;;;;;21.21;33.62;101027.23;107559;1269;69931;-85
2024/04/06 06:17:35;;;;;;;12.70;7.30;;;;;;;21.18;33.93;101030.83;107569;1265;70074;-86
2024/04/06 06:20:04;;;;;;;14.00;7.20;;;;;;;21.14;33.85;101032.96;107551;1270;70002;-86
2024/04/06 06:22:30;;;;;;;17.40;7.40;;;;;;;21.11;33.88;101037.17;107530;1265;70460;-86
2024/04/06 06:24:56;;;;;;;15.60;7.80;;;;;;;21.09;33.92;101038.85;107595;1265;70025;-86
2024/04/06 06:27:22;;;;;;;10.80;7.20;;;;;;;21.07;34.13;101040.27;107684;1265;69989;-86
2024/04/06 06:29:48;;;;;;;12.20;6.70;;;;;;;21.05;33.95;101043.12;107488;1265;69995;-85
2024/04/06 06:32:14;;;;;;;12.30;7.00;;;;;;;21.04;34.26;101052.58;107646;1267;69888;-86
2024/04/06 06:34:44;;;;;;;11.90;6.60;;;;;;;21.04;34.43;101059.98;107516;1265;70042;-92
2024/04/06 06:37:10;;;;;;;12.70;6.30;;;;;;;21.02;34.34;101060.17;107529;1273;68009;-86
2024/04/06 06:39:36;;;;;;;16.70;7.30;;;;;;;21.01;34.43;101063.35;107694;1265;70112;-86
2024/04/06 06:42:02;;;;;;;15.80;7.80;;;;;;;21.02;34.66;101064.59;107678;1265;69961;-86
2024/04/06 06:44:29;;;;;;;20.10;8.20;;;;;;;21.02;34.68;101068.67;107846;1265;70238;-87
2024/04/06 06:46:54;;;;;;;13.10;8.10;;;;;;;21.01;34.76;101069.08;107836;1265;67795;-87
2024/04/06 06:49:20;;;;;;;14.00;8.00;;;;;;;21.01;34.88;101070.54;107861;1265;69988;-87
2024/04/06 06:51:46;;;;;;;16.40;8.00;;;;;;;21.01;34.95;101070.55;107902;1265;70043;-87
2024/04/06 06:54:12;;;;;;;23.80;8.40;;;;;;;20.99;34.83;101066.13;107722;1267;83812;-87
2024/04/06 06:56:38;;;;;;;19.20;8.70;;;;;;;20.98;34.77;101066.23;107737;1265;67432;-87
2024/04/06 06:59:04;;;;;;;12.20;7.50;;;;;;;20.97;34.94;101071.52;107826;1265;70037;-87
2024/04/06 07:01:38;;;;;;;10.60;6.30;;;;;;;20.96;34.90;101073.72;107717;1265;69764;-92
2024/04/06 07:04:05;;;;;;;11.50;6.00;;;;;;;20.94;34.61;101072.89;107752;1265;75497;-87
2024/04/06 07:06:31;;;;;;;12.20;6.10;;;;;;;20.93;34.77;101077.39;107658;1265;70037;-87
2024/04/06 07:08:57;;;;;;;12.60;6.00;;;;;;;20.92;34.70;101080.09;107803;1265;70445;-87
2024/04/06 07:11:23;;;;;;;12.80;6.30;;;;;;;20.92;34.74;101076.71;107827;1265;67840;-87
2024/04/06 07:13:49;;;;;;;9.90;6.40;;;;;;;20.93;34.81;101071.14;107805;1265;70151;-87
2024/04/06 07:16:15;;;;;;;8.90;6.40;;;;;;;20.94;34.78;101073.00;107858;1267;69967;-87
2024/04/06 07:18:41;;;;;;;9.70;5.80;;;;;;;20.94;34.78;101074.42;107764;1265;69905;-87
2024/04/06 07:21:11;;;;;;;13.90;5.70;;;;;;;20.94;34.94;101073.40;107789;1265;69905;-86
2024/04/06 07:23:37;;;;;;;12.40;4.80;;;;;;;20.95;34.85;101074.95;107766;1265;69854;-87
2024/04/06 07:26:04;;;;;;;11.10;4.80;;;;;;;20.95;34.78;101072.08;107827;1265;68140;-87
2024/04/06 07:28:37;;;;;;;9.80;4.80;;;;;;;20.98;34.82;101071.45;107920;1268;70091;-92
2024/04/06 07:31:04;;;;;;;11.40;4.80;;;;;;;21.00;34.77;101067.46;107728;1268;82893;-87
2024/04/06 07:33:30;;;;;;;9.10;4.40;;;;;;;21.01;34.73;101062.88;107822;1265;72283;-87
2024/04/06 07:35:56;;;;;;;7.90;4.60;;;;;;;21.03;34.67;101055.08;107669;1265;68174;-87
2024/04/06 07:38:21;;;;;;;8.30;4.00;;;;;;;21.04;34.48;101049.76;107706;1265;69970;-87
2024/04/06 07:41:02;;;;;;;13.90;4.10;;;;;;;21.06;34.60;101041.38;107699;1266;69868;-87
2024/04/06 07:43:28;;;;;;;6.70;3.90;;;;;;;21.07;34.51;101040.61;107973;1265;82922;-93
2024/04/06 07:45:54;;;;;;;9.50;4.10;;;;;;;21.08;34.45;101041.19;107632;1265;68142;-87
2024/04/06 07:48:20;;;;;;;8.80;4.20;;;;;;;21.10;34.33;101043.36;107889;1266;69909;-87
2024/04/06 07:50:46;;;;;;;7.40;4.10;;;;;;;21.12;34.23;101045.98;107780;1266;69961;-87
2024/04/06 07:53:12;;;;;;;10.40;4.20;;;;;;;21.12;34.35;101049.17;107776;1265;69966;-87
2024/04/06 07:55:38;;;;;;;8.10;3.80;;;;;;;21.15;34.08;101055.13;107762;1271;67999;-87
2024/04/06 07:58:03;;;;;;;10.80;3.90;;;;;;;21.17;34.06;101055.45;107926;1265;70287;-87
2024/04/06 08:00:32;;;;;;;7.70;4.20;;;;;;;21.19;34.00;101056.64;107683;1265;69916;-87
2024/04/06 08:02:58;;;;;;;14.30;3.80;;;;;;;21.20;34.07;101064.42;107785;1265;75221;-87
2024/04/06 08:05:24;;;;;;;9.40;4.30;;;;;;;21.22;33.84;101064.44;107653;1265;70143;-87
2024/04/06 08:07:50;;;;;;;10.50;3.90;;;;;;;21.21;33.94;101062.54;107646;1265;70003;-87
2024/04/06 08:10:17;;;;;;;12.70;6.70;;;;;;;21.21;34.12;101060.64;107702;1265;67794;-88
2024/04/06 08:12:43;;;;;;;10.20;5.00;;;;;;;21.22;33.99;101065.01;107683;1265;70021;-88
2024/04/06 08:15:10;;;;;;;10.90;4.60;;;;;;;21.24;33.90;101067.48;107826;1265;70130;-87
2024/04/06 08:17:42;;;;;;;9.20;4.20;;;;;;;21.26;33.94;101064.73;107734;1266;69981;-87
2024/04/06 08:20:11;;;;;;;6.80;4.10;;;;;;;21.28;33.93;101060.45;107767;1265;72187;-87
2024/04/06 08:22:38;;;;;;;7.10;3.90;;;;;;;21.28;33.80;101056.96;107725;1265;69779;-87
2024/04/06 08:25:07;;;;;;;9.10;3.30;;;;;;;21.28;33.62;101056.37;107847;1265;69785;-87
2024/04/06 08:27:39;;;;;;;6.60;3.50;;;;;;;21.29;33.62;101052.48;107923;1265;74823;-87
2024/04/06 08:30:06;;;;;;;12.30;3.50;;;;;;;21.27;33.50;101051.95;107806;1265;70026;-87
2024/04/06 08:32:35;;;;;;;5.90;3.30;;;;;;;21.27;33.69;101046.42;107793;1265;71340;-87
2024/04/06 08:35:01;;;;;;;11.00;2.80;;;;;;;21.28;33.64;101043.67;107873;1265;70362;-87
2024/04/06 08:37:27;;;;;;;4.40;2.20;;;;;;;21.32;33.70;101044.31;107784;1265;70014;-88
2024/04/06 08:39:53;;;;;;;4.50;1.90;;;;;;;21.34;33.30;101046.06;107680;1265;67935;-87
2024/04/06 08:42:28;;;;;;;4.70;1.90;;;;;;;21.34;33.17;101051.03;107726;1265;68720;-87
2024/04/06 08:44:54;;;;;;;5.40;1.90;;;;;;;21.36;33.06;101048.99;107980;1265;72276;-87
2024/04/06 08:47:20;;;;;;;5.40;2.00;;;;;;;21.36;32.69;101043.66;107790;1265;68182;-87
2024/04/06 08:49:46;;;;;;;2.60;1.80;;;;;;;21.34;32.71;101040.89;107878;1265;68710;-87
2024/04/06 08:52:13;;;;;;;5.80;1.90;;;;;;;21.35;32.50;101039.56;107760;1265;69995;-92
2024/04/06 08:54:39;;;;;;;4.10;2.00;;;;;;;21.36;32.36;101030.66;107714;1270;70013;-87
2024/04/06 08:57:05;;;;;;;3.60;1.70;;;;;;;21.38;32.46;101025.92;107821;1265;68130;-87
2024/04/06 08:59:32;;;;;;;5.70;1.50;;;;;;;21.41;32.37;101020.67;107780;1273;67997;-87
2024/04/06 09:01:58;;;;;;;3.90;1.80;;;;;;;21.42;32.31;101018.64;107826;1265;69914;-87
2024/04/06 09:04:24;;;;;;;6.00;1.50;;;;;;;21.44;32.28;101020.63;107874;1265;68092;-87
2024/04/06 09:06:50;;;;;;;3.00;1.60;;;;;;;21.46;32.08;101016.30;107721;1265;69889;-87
2024/04/06 09:09:16;;;;;;;2.70;1.70;;;;;;;21.46;31.93;101013.48;107896;1265;69982;-87
2024/04/06 09:11:42;;;;;;;5.40;1.50;;;;;;;21.46;31.90;101011.08;107924;1265;69982;-87
2024/04/06 09:14:08;;;;;;;3.30;1.80;;;;;;;21.47;31.90;101010.67;107825;1265;69868;-87
2024/04/06 09:16:34;;;;;;;2.40;1.50;;;;;;;21.50;31.98;101012.13;107872;1265;69986;-87
2024/04/06 09:19:09;;;;;;;5.10;1.80;;;;;;;21.53;31.85;101011.95;107987;1265;70160;-91
2024/04/06 09:21:35;;;;;;;2.80;1.40;;;;;;;21.56;31.77;101017.84;107781;1270;69868;-87
2024/04/06 09:24:01;;;;;;;4.60;1.60;;;;;;;21.59;31.71;101019.71;107969;1265;69961;-87
2024/04/06 09:26:30;;;;;;;2.50;1.30;;;;;;;21.61;31.60;101017.20;107876;1265;70102;-87
2024/04/06 09:28:57;;;;;;;4.30;1.30;;;;;;;21.63;31.68;101011.21;107872;1265;81852;-86
2024/04/06 09:31:23;;;;;;;2.60;1.30;;;;;;;21.65;31.68;101009.59;107952;1265;71306;-87
2024/04/06 09:36:36;;;;;;;3.20;1.40;;;;;;;21.69;31.48;101000.79;107979;1265;69950;-86
2024/04/06 09:39:04;;;;;;;3.60;1.30;;;;;;;21.70;31.50;101000.64;107923;1265;69968;-86
2024/04/06 09:41:30;;;;;;;6.90;1.80;;;;;;;21.70;31.42;100998.23;107986;1268;82692;-86
2024/04/06 09:43:58;;;;;;;2.20;1.10;;;;;;;21.70;31.39;100996.71;107984;1265;70108;-86
2024/04/06 09:46:23;;;;;;;2.50;1.40;;;;;;;21.70;31.36;100997.21;108001;1265;69842;-86
2024/04/06 09:51:30;;;;;;;2.70;1.20;;;;;;;21.73;31.39;100997.84;107908;1265;75984;-87
2024/04/06 09:53:56;;;;;;;3.80;1.30;;;;;;;21.73;31.18;100995.80;107806;1265;69967;-87
2024/04/06 09:56:22;;;;;;;3.50;1.50;;;;;;;21.73;30.93;100990.42;107855;1265;68729;-87
2024/04/06 09:58:48;;;;;;;3.70;1.20;;;;;;;21.74;30.90;100988.02;107842;1265;68800;-87
2024/04/06 10:01:16;;;;;;;2.10;1.00;;;;;;;21.75;30.87;100982.85;107841;1265;69988;-87
2024/04/06 10:06:33;;;;;;;2.00;1.10;;;;;;;21.74;30.80;100972.91;107519;1267;82807;-87
2024/04/06 10:08:59;;;;;;;2.70;1.30;;;;;;;21.75;30.90;100970.20;107582;1267;72513;-87
2024/04/06 10:11:27;;;;;;;10.30;1.60;;;;;;;21.76;30.98;100965.03;107564;1273;69949;-88
2024/04/06 10:14:03;;;;;;;6.20;1.50;;;;;;;21.80;30.84;100962.17;107546;1273;69931;-87
2024/04/06 10:16:33;;;;;;;4.20;1.20;;;;;;;21.82;30.91;100962.55;107573;1270;75946;-87
2024/04/06 10:18:59;;;;;;;7.10;1.50;;;;;;;21.83;30.98;100960.40;107602;1267;83647;-88
2024/04/06 10:21:38;;;;;;;6.60;1.80;;;;;;;21.84;30.90;100958.31;107503;1267;70111;-87
2024/04/06 10:24:08;;;;;;;4.00;1.30;;;;;;;21.86;31.01;100948.98;107621;1273;69748;-87
2024/04/06 10:26:34;;;;;;;4.70;1.40;;;;;;;21.88;30.90;100944.80;107544;1267;69839;-87
2024/04/06 10:29:01;;;;;;;3.80;1.80;;;;;;;21.89;30.88;100942.09;107620;1270;69979;-87
2024/04/06 10:31:26;;;;;;;3.20;1.50;;;;;;;21.90;31.04;100940.23;107666;1267;67723;-88
2024/04/06 10:33:53;;;;;;;6.20;1.80;;;;;;;21.91;31.19;100935.84;107626;1267;70025;-89
2024/04/06 10:36:19;;;;;;;3.30;1.80;;;;;;;21.93;30.99;100932.05;107361;1267;69990;-87
2024/04/06 10:38:44;;;;;;;5.20;2.10;;;;;;;21.95;31.14;100933.54;107489;1271;69859;-87
2024/04/06 10:41:11;;;;;;;4.30;1.50;;;;;;;21.98;31.03;100926.17;107629;1267;70032;-87
2024/04/06 10:43:36;;;;;;;4.00;1.60;;;;;;;21.98;31.15;100922.89;107475;1268;481531;-87
2024/04/06 10:46:03;;;;;;;6.80;1.50;;;;;;;21.98;30.86;100927.26;107719;1267;69877;-88
2024/04/06 10:48:30;;;;;;;5.60;1.60;;;;;;;21.98;30.95;100920.45;107713;1267;67668;-88
2024/04/06 10:50:57;;;;;;;1.70;1.40;;;;;;;21.97;31.02;100918.43;107774;1270;75135;-88
2024/04/06 10:53:23;;;;;;;3.50;1.40;;;;;;;21.96;31.19;100920.42;107737;1270;69866;-88
2024/04/06 10:55:49;;;;;;;2.00;1.40;;;;;;;21.94;30.98;100918.27;107983;1270;69880;-87
2024/04/06 10:58:18;;;;;;;3.40;1.40;;;;;;;21.95;31.08;100907.20;107800;1269;69925;-88
2024/04/06 11:00:46;;;;;;;2.90;1.40;;;;;;;21.94;31.03;100907.96;107887;1270;68353;-92
2024/04/06 11:03:12;;;;;;;2.00;1.30;;;;;;;21.94;30.99;100902.50;107858;1270;75064;-88
2024/04/06 11:05:38;;;;;;;4.30;1.30;;;;;;;21.93;30.92;100900.39;107761;1271;68718;-88
2024/04/06 11:08:04;;;;;;;1.80;1.20;;;;;;;21.93;30.68;100894.85;107725;1270;69968;-88
2024/04/06 11:10:30;;;;;;;2.10;1.40;;;;;;;21.93;30.68;100892.45;107619;1270;70029;-88
2024/04/06 11:12:57;;;;;;;2.60;1.20;;;;;;;21.93;30.71;100885.33;107770;1270;69894;-88
2024/04/06 11:15:27;;;;;;;2.90;1.20;;;;;;;21.93;30.65;100887.68;107699;1270;69967;-88
2024/04/06 11:18:02;;;;;;;2.80;1.50;;;;;;;21.92;30.74;100884.41;108113;1264;80934;-87
2024/04/06 11:20:28;;;;;;;5.00;1.60;;;;;;;21.93;30.83;100881.33;107981;1264;72540;-87
2024/04/06 11:22:54;;;;;;;6.50;1.60;;;;;;;21.92;30.92;100878.30;108354;1264;67763;-87
2024/04/06 11:25:20;;;;;;;2.40;1.50;;;;;;;21.91;30.96;100869.14;108703;1264;67422;-88
2024/04/06 11:27:47;;;;;;;3.80;1.30;;;;;;;21.90;30.95;100861.45;108586;1264;67618;-88
2024/04/06 11:30:14;;;;;;;2.50;1.60;;;;;;;21.90;30.95;100861.45;108600;1266;69908;-87
2024/04/06 11:32:40;;;;;;;1.90;1.30;;;;;;;21.91;31.05;100855.85;108483;1266;67755;-88